createdAt,value
2017-12-28T13:07:26.927Z,23.57
2017-12-28T13:08:26.880Z,25.54
2017-12-28T13:10:19.771Z,33.45
2017-12-28T13:11:19.721Z,37.42
2017-12-28T13:13:12.597Z,42.50
2017-12-28T13:14:12.574Z,44.31
2017-12-28T13:16:05.425Z,47.58
2017-12-28T13:17:05.397Z,49.39
2017-12-28T13:18:58.205Z,49.37
2017-12-28T13:19:58.173Z,50.12
2017-12-28T13:21:51.050Z,52.12
2017-12-28T13:22:50.976Z,54.02
2017-12-28T13:24:43.800Z,54.46
2017-12-28T13:25:43.779Z,54.85
2017-12-28T13:27:36.773Z,56.93
2017-12-28T13:28:36.727Z,56.84
2017-12-28T13:30:29.663Z,57.76
2017-12-28T13:31:29.567Z,58.14
2017-12-28T13:33:22.470Z,58.51
2017-12-28T13:34:22.476Z,57.66
2017-12-28T13:36:15.360Z,59.27
2017-12-28T13:37:15.272Z,59.37
2017-12-28T13:39:08.173Z,60.41
2017-12-28T13:40:08.120Z,59.46
2017-12-28T13:42:00.954Z,60.41
2017-12-28T13:43:00.927Z,60.50
2017-12-28T13:44:53.982Z,62.40
2017-12-28T13:45:53.924Z,62.02
2017-12-28T13:47:46.875Z,62.50
2017-12-28T13:48:46.782Z,63.64
2017-12-28T13:50:39.772Z,63.32
2017-12-28T13:51:39.677Z,63.13
2017-12-28T13:53:32.502Z,63.51
2017-12-28T13:54:32.474Z,64.46
2017-12-28T13:56:25.418Z,64.27
2017-12-28T13:57:25.326Z,65.22
2017-12-28T13:59:18.255Z,66.45
2017-12-28T14:00:18.210Z,66.83
2017-12-28T14:02:12.052Z,67.68
2017-12-28T14:03:12.014Z,67.30
2017-12-28T14:05:05.096Z,68.25
2017-12-28T14:06:05.002Z,69.86
2017-12-28T14:07:57.855Z,71.09
2017-12-28T14:08:57.807Z,70.72
2017-12-28T14:10:50.839Z,71.57
2017-12-28T14:11:50.863Z,72.42
2017-12-28T14:13:43.747Z,71.95
2017-12-28T14:14:43.664Z,72.23
2017-12-28T14:16:36.541Z,73.08
2017-12-28T14:17:36.518Z,73.18
2017-12-28T14:19:29.366Z,72.71
2017-12-28T14:20:29.319Z,72.61
2017-12-28T14:22:22.399Z,73.84
2017-12-28T14:23:22.321Z,73.46
2017-12-28T14:25:15.219Z,75.26
2017-12-28T14:26:15.166Z,75.17
2017-12-28T14:28:08.620Z,73.94
2017-12-28T14:29:08.522Z,73.84
2017-12-28T14:31:01.375Z,75.84
2017-12-28T14:32:01.406Z,75.64
2017-12-28T14:33:55.449Z,75.74
2017-12-28T14:34:55.355Z,75.64
2017-12-28T14:36:48.248Z,75.64
2017-12-28T14:37:48.208Z,75.84
2017-12-28T14:39:41.156Z,76.50
2017-12-28T14:40:41.053Z,75.84
2017-12-28T14:42:33.910Z,75.64
2017-12-28T14:43:33.862Z,76.59
2017-12-28T14:45:26.672Z,76.03
2017-12-28T14:46:26.647Z,76.31
2017-12-28T14:48:19.502Z,76.12
2017-12-28T14:49:19.444Z,76.03
2017-12-28T14:51:12.548Z,77.03
2017-12-28T14:52:12.486Z,76.40
2017-12-28T14:54:05.459Z,74.95
2017-12-28T14:55:05.399Z,74.79
2017-12-28T14:56:58.237Z,73.99
2017-12-28T14:57:58.207Z,76.08
2017-12-28T14:59:51.049Z,75.26
2017-12-28T15:00:50.998Z,74.79
2017-12-28T15:02:44.176Z,74.69
2017-12-28T15:03:43.957Z,73.99
2017-12-28T15:05:37.374Z,73.61
2017-12-28T15:06:37.378Z,72.38
2017-12-28T15:08:30.210Z,73.90
2017-12-28T15:09:30.168Z,74.41
2017-12-28T15:11:23.014Z,73.52
2017-12-28T15:12:22.965Z,74.47
2017-12-28T15:14:16.067Z,75.60
2017-12-28T15:15:15.969Z,72.29
2017-12-28T15:17:08.879Z,73.33
2017-12-28T15:18:09.949Z,74.18
2017-12-28T15:20:01.648Z,74.09
2017-12-28T15:21:01.623Z,73.43
2017-12-28T15:22:54.725Z,74.28
2017-12-28T15:23:54.629Z,75.89
2017-12-28T15:25:47.464Z,74.09
2017-12-28T15:26:47.438Z,73.90
2017-12-28T15:28:40.275Z,75.13
2017-12-28T15:29:40.222Z,74.75
2017-12-28T15:31:33.045Z,74.18
2017-12-28T15:32:33.016Z,73.14
2017-12-28T15:34:25.867Z,74.75
2017-12-28T15:35:25.809Z,74.95
2017-12-28T15:37:18.869Z,74.75
2017-12-28T15:38:18.833Z,72.96
2017-12-28T15:40:11.680Z,74.75
2017-12-28T15:41:11.629Z,75.60
2017-12-28T15:43:04.502Z,75.04
2017-12-28T15:44:04.474Z,74.47
2017-12-28T15:45:57.381Z,73.43
2017-12-28T15:46:57.322Z,74.75
2017-12-28T15:48:50.152Z,75.98
2017-12-28T15:49:50.127Z,73.61
2017-12-28T15:51:43.270Z,76.36
2017-12-28T15:52:43.132Z,76.08
2017-12-28T15:54:36.024Z,75.98
2017-12-28T15:55:35.981Z,75.79
2017-12-28T15:57:28.841Z,77.22
2017-12-28T15:58:28.788Z,75.70
2017-12-28T16:00:21.608Z,76.17
2017-12-28T16:01:21.574Z,76.36
2017-12-28T16:03:14.416Z,77.40
2017-12-28T16:04:14.372Z,78.26
2017-12-28T16:06:07.194Z,79.02
2017-12-28T16:07:07.161Z,80.25
2017-12-28T16:09:00.223Z,79.39
2017-12-28T16:10:00.128Z,78.92
2017-12-28T16:11:53.073Z,80.53
2017-12-28T16:12:52.991Z,80.06
2017-12-28T16:14:45.889Z,81.38
2017-12-28T16:15:45.834Z,81.48
2017-12-28T16:17:38.713Z,82.14
2017-12-28T16:18:38.743Z,81.86
2017-12-28T16:20:31.712Z,82.24
2017-12-28T16:21:31.540Z,81.76
2017-12-28T16:23:24.431Z,82.81
2017-12-28T16:24:24.382Z,82.81
2017-12-28T16:26:17.369Z,82.52
2017-12-28T16:27:17.235Z,83.18
2017-12-28T16:29:10.067Z,83.75
2017-12-28T16:30:10.040Z,84.23
2017-12-28T16:32:03.129Z,84.61
2017-12-28T16:33:03.046Z,84.23
2017-12-28T16:34:55.916Z,84.51
2017-12-28T16:35:55.887Z,84.99
2017-12-28T16:37:48.839Z,85.17
2017-12-28T16:38:48.733Z,85.84
2017-12-28T16:40:41.566Z,85.84
2017-12-28T16:41:41.546Z,85.17
2017-12-28T16:43:34.596Z,85.27
2017-12-28T16:44:34.602Z,84.80
2017-12-28T16:46:27.487Z,85.84
2017-12-28T16:47:27.393Z,86.22
2017-12-28T16:49:20.341Z,86.22
2017-12-28T16:50:20.241Z,86.12
2017-12-28T16:52:13.198Z,86.12
2017-12-28T16:53:13.103Z,86.12
2017-12-28T16:55:06.002Z,85.55
2017-12-28T16:56:05.947Z,85.93
2017-12-28T16:57:58.891Z,86.31
2017-12-28T16:58:58.797Z,86.31
2017-12-28T17:00:51.696Z,87.07
2017-12-28T17:01:51.647Z,86.60
2017-12-28T17:03:44.716Z,86.60
2017-12-28T17:04:44.592Z,86.12
2017-12-28T17:06:37.608Z,86.50
2017-12-28T17:07:37.606Z,86.22
2017-12-28T17:09:30.496Z,86.12
2017-12-28T17:10:30.401Z,86.79
2017-12-28T17:12:23.400Z,87.07
2017-12-28T17:13:23.355Z,86.98
2017-12-28T17:15:16.520Z,86.88
2017-12-28T17:16:16.303Z,87.54
2017-12-28T17:18:09.310Z,87.16
2017-12-28T17:19:09.421Z,86.69
2017-12-28T17:21:02.408Z,87.54
2017-12-28T17:22:02.213Z,87.26
2017-12-28T17:23:55.363Z,87.35
2017-12-28T17:24:55.159Z,87.35
2017-12-28T17:26:48.316Z,87.26
2017-12-28T17:27:48.114Z,87.26
2017-12-28T17:29:41.273Z,87.26
2017-12-28T17:30:41.065Z,86.69
2017-12-28T17:32:35.256Z,87.07
2017-12-28T17:33:34.019Z,87.64
2017-12-28T17:35:27.188Z,87.92
2017-12-28T17:36:26.970Z,87.83
2017-12-28T17:38:20.141Z,87.73
2017-12-28T17:39:19.924Z,87.16
2017-12-28T17:41:12.933Z,86.88
2017-12-28T17:42:13.043Z,87.54
2017-12-28T17:44:05.861Z,87.16
2017-12-28T17:45:05.997Z,87.45
2017-12-28T17:46:58.834Z,87.73
2017-12-28T17:47:58.950Z,88.30
2017-12-28T17:49:51.774Z,87.64
2017-12-28T17:50:51.899Z,88.21
2017-12-28T17:52:44.749Z,88.30
2017-12-28T17:53:44.857Z,88.02
2017-12-28T17:55:37.846Z,88.30
2017-12-28T17:56:37.641Z,88.02
2017-12-28T17:58:30.656Z,87.83
2017-12-28T17:59:30.598Z,87.92
2017-12-28T18:01:23.747Z,87.31
2017-12-28T18:02:23.552Z,88.26
2017-12-28T18:04:16.700Z,88.26
2017-12-28T18:05:16.501Z,87.88
2017-12-28T18:07:09.661Z,87.69
2017-12-28T18:08:09.460Z,87.59
2017-12-28T18:10:02.464Z,87.88
2017-12-28T18:11:02.412Z,87.31
2017-12-28T18:12:55.564Z,87.78
2017-12-28T18:13:55.361Z,88.17
2017-12-28T18:15:48.268Z,87.12
2017-12-28T18:16:48.216Z,87.69
2017-12-28T18:18:41.202Z,87.59
2017-12-28T18:19:41.333Z,87.98
2017-12-28T18:21:34.325Z,86.65
2017-12-28T18:22:34.113Z,87.88
2017-12-28T18:24:27.276Z,87.12
2017-12-28T18:25:27.233Z,86.65
2017-12-28T18:27:20.220Z,87.31
2017-12-28T18:28:20.017Z,87.12
2017-12-28T18:30:13.008Z,86.74
2017-12-28T18:31:13.138Z,86.65
2017-12-28T18:33:06.141Z,86.74
2017-12-28T18:34:05.931Z,85.80
2017-12-28T18:35:58.909Z,87.40
2017-12-28T18:36:59.051Z,87.02
2017-12-28T18:38:51.943Z,86.83
2017-12-28T18:39:51.835Z,87.50
2017-12-28T18:41:44.720Z,85.99
2017-12-28T18:42:44.750Z,86.18
2017-12-28T18:44:37.635Z,86.93
2017-12-28T18:45:37.536Z,86.65
2017-12-28T18:47:30.420Z,87.31
2017-12-28T18:48:30.481Z,87.69
2017-12-28T18:50:23.294Z,86.55
2017-12-28T18:51:23.245Z,87.16
2017-12-28T18:53:16.121Z,86.83
2017-12-28T18:54:16.086Z,86.93
2017-12-28T18:56:08.944Z,86.08
2017-12-28T18:57:08.886Z,86.41
2017-12-28T18:59:01.930Z,87.07
2017-12-28T19:00:01.951Z,86.22
2017-12-28T19:01:54.852Z,86.69
2017-12-28T19:02:54.748Z,86.12
2017-12-28T19:04:47.622Z,86.03
2017-12-28T19:05:47.611Z,86.98
2017-12-28T19:07:40.566Z,86.31
2017-12-28T19:08:40.505Z,87.54
2017-12-28T19:10:33.276Z,86.22
2017-12-28T19:11:33.246Z,86.41
2017-12-28T19:13:26.301Z,86.50
2017-12-28T19:14:26.251Z,86.50
2017-12-28T19:16:19.195Z,86.50
2017-12-28T19:17:19.159Z,86.88
2017-12-28T19:19:12.045Z,86.98
2017-12-28T19:20:11.948Z,87.07
2017-12-28T19:22:04.783Z,86.60
2017-12-28T19:23:04.750Z,86.74
2017-12-28T19:24:57.589Z,86.41
2017-12-28T19:25:57.543Z,86.55
2017-12-28T19:27:50.609Z,86.55
2017-12-28T19:28:50.566Z,86.27
2017-12-28T19:30:43.389Z,86.93
2017-12-28T19:31:43.319Z,85.99
2017-12-28T19:33:36.341Z,86.22
2017-12-28T19:34:36.305Z,86.12
2017-12-28T19:36:29.205Z,85.74
2017-12-28T19:37:29.217Z,86.27
2017-12-28T19:39:22.069Z,86.65
2017-12-28T19:40:22.005Z,86.69
2017-12-28T19:42:14.961Z,87.16
2017-12-28T19:43:14.850Z,86.69
2017-12-28T19:45:07.768Z,86.50
2017-12-28T19:46:07.736Z,86.50
2017-12-28T19:48:00.660Z,86.31
2017-12-28T19:49:00.565Z,86.03
2017-12-28T19:50:53.419Z,86.79
2017-12-28T19:51:53.366Z,86.50
2017-12-28T19:53:46.438Z,85.93
2017-12-28T19:54:46.364Z,86.69
2017-12-28T19:56:39.198Z,86.60
2017-12-28T19:57:39.154Z,86.60
2017-12-28T19:59:31.973Z,86.98
2017-12-28T20:00:31.941Z,86.22
2017-12-28T20:02:24.969Z,86.79
2017-12-28T20:03:24.911Z,86.69
2017-12-28T20:05:17.736Z,86.60
2017-12-28T20:06:17.720Z,86.60
2017-12-28T20:08:10.766Z,86.50
2017-12-28T20:09:10.779Z,86.12
2017-12-28T20:11:03.664Z,86.12
2017-12-28T20:12:03.563Z,86.60
2017-12-28T20:13:56.515Z,85.55
2017-12-28T20:14:56.418Z,86.79
2017-12-28T20:16:49.241Z,86.03
2017-12-28T20:17:49.214Z,86.41
2017-12-28T20:19:42.051Z,85.84
2017-12-28T20:20:42.002Z,86.22
2017-12-28T20:22:34.995Z,85.55
2017-12-28T20:23:34.965Z,86.22
2017-12-28T20:25:27.815Z,86.69
2017-12-28T20:26:27.765Z,85.46
2017-12-28T20:28:20.804Z,86.79
2017-12-28T20:29:20.834Z,85.46
2017-12-28T20:31:13.677Z,86.22
2017-12-28T20:32:13.623Z,85.93
2017-12-28T20:34:06.571Z,85.55
2017-12-28T20:35:06.467Z,86.60
2017-12-28T20:36:59.415Z,85.36
2017-12-28T20:37:59.318Z,85.65
2017-12-28T20:39:52.208Z,85.84
2017-12-28T20:40:52.231Z,85.36
2017-12-28T20:42:45.075Z,86.22
2017-12-28T20:43:45.026Z,86.12
2017-12-28T20:45:37.968Z,85.46
2017-12-28T20:46:37.876Z,86.31
2017-12-28T20:48:30.777Z,85.27
2017-12-28T20:49:30.725Z,85.93
2017-12-28T20:51:23.608Z,85.93
2017-12-28T20:52:23.632Z,85.74
2017-12-28T20:54:16.478Z,86.22
2017-12-28T20:55:16.438Z,86.22
2017-12-28T20:57:09.376Z,86.03
2017-12-28T20:58:09.274Z,85.65
2017-12-28T21:00:02.220Z,86.31
2017-12-28T21:01:02.129Z,86.41
2017-12-28T21:02:56.100Z,86.60
2017-12-28T21:03:54.979Z,85.93
2017-12-28T21:05:47.885Z,85.36
2017-12-28T21:06:47.886Z,86.60
2017-12-28T21:08:40.706Z,85.84
2017-12-28T21:09:40.737Z,85.74
2017-12-28T21:11:33.631Z,85.93
2017-12-28T21:12:33.527Z,86.22
2017-12-28T21:14:26.478Z,86.22
2017-12-28T21:15:26.377Z,85.65
2017-12-28T21:17:19.278Z,85.55
2017-12-28T21:18:19.232Z,86.60
2017-12-28T21:20:12.109Z,86.22
2017-12-28T21:21:12.077Z,85.93
2017-12-28T21:23:04.984Z,86.50
2017-12-28T21:24:04.992Z,85.93
2017-12-28T21:25:57.874Z,85.46
2017-12-28T21:26:57.778Z,85.46
2017-12-28T21:28:50.685Z,86.22
2017-12-28T21:29:50.690Z,85.93
2017-12-28T21:31:43.588Z,85.84
2017-12-28T21:32:43.482Z,85.65
2017-12-28T21:34:36.428Z,86.12
2017-12-28T21:35:36.331Z,85.65
2017-12-28T21:37:29.278Z,86.88
2017-12-28T21:38:29.186Z,86.22
2017-12-28T21:40:22.084Z,86.03
2017-12-28T21:41:22.034Z,85.93
2017-12-28T21:43:14.983Z,86.31
2017-12-28T21:44:14.879Z,86.12
2017-12-28T21:46:07.836Z,85.55
2017-12-28T21:47:07.729Z,86.22
2017-12-28T21:49:00.683Z,85.65
2017-12-28T21:50:00.583Z,85.74
2017-12-28T21:51:53.489Z,85.36
2017-12-28T21:52:53.451Z,86.50
2017-12-28T21:54:46.379Z,86.22
2017-12-28T21:55:46.343Z,85.84
2017-12-28T21:57:39.193Z,86.31
2017-12-28T21:58:39.137Z,85.93
2017-12-28T22:00:32.083Z,85.46
2017-12-28T22:01:31.981Z,85.27
2017-12-28T22:03:24.937Z,86.03
2017-12-28T22:04:24.839Z,85.74
2017-12-28T22:06:17.780Z,85.55
2017-12-28T22:07:17.683Z,86.12
2017-12-28T22:09:10.636Z,85.84
2017-12-28T22:10:10.549Z,86.03
2017-12-28T22:12:03.415Z,86.31
2017-12-28T22:13:03.389Z,85.65
2017-12-28T22:14:56.301Z,86.03
2017-12-28T22:15:56.238Z,85.74
2017-12-28T22:17:49.186Z,86.12
2017-12-28T22:18:49.086Z,86.03
2017-12-28T22:20:41.995Z,85.93
2017-12-28T22:21:41.938Z,85.93
2017-12-28T22:23:34.892Z,86.22
2017-12-28T22:24:34.797Z,85.36
2017-12-28T22:26:27.703Z,86.69
2017-12-28T22:27:27.649Z,86.12
2017-12-28T22:29:20.586Z,86.22
2017-12-28T22:30:20.486Z,85.27
2017-12-28T22:32:13.442Z,85.13
